Aviation Digital Data Service (ADDS)

Output produced by METARs form (2258 UTC 02 October 2022)
found at http://aviationweather.gov/metar/data/
 
METAR text: KMYL 022251Z AUTO 00000KT 10SM OVC080 16/04 A3013 RMK AO2 RAB35E45 SLP182 P0000 T01610039
Conditions at: KMYL (MCCALL , ID, US) observed 2251 UTC 02 October 2022
Temperature: 16.1°C (61°F)
Dewpoint: 3.9°C (39°F) [RH = 44%]
Pressure (altimeter): 30.13 inches Hg (1020.4 mb)
[Sea-level pressure: 1018.2 mb]
Winds: calm
Visibility: 10 or more miles (16+ km)
Ceiling: 8000 feet AGL
Clouds: overcast cloud deck at 8000 feet AGL
Weather: automated observation with no human augmentation;
there may or may not be significant weather present at this time

METAR text: KMYL 022151Z AUTO 12004KT 10SM OVC085 17/04 A3013 RMK AO2 SLP179 T01670039
Conditions at: KMYL (MCCALL , ID, US) observed 2151 UTC 02 October 2022
Temperature: 16.7°C (62°F)
Dewpoint: 3.9°C (39°F) [RH = 42%]
Pressure (altimeter): 30.13 inches Hg (1020.4 mb)
[Sea-level pressure: 1017.9 mb]
Winds: from the ESE (120 degrees) at 5 MPH (4 knots; 2.1 m/s)
Visibility: 10 or more miles (16+ km)
Ceiling: 8500 feet AGL
Clouds: overcast cloud deck at 8500 feet AGL
Weather: automated observation with no human augmentation;
there may or may not be significant weather present at this time

Forecast for: KMYL (MCCALL , ID, US)
Text: KMYL 021720Z 0218/0318 VRB04KT P6SM BKN070
Forecast period: 1800 UTC 02 October 2022 to 0000 UTC 03 October 2022
Forecast type: FROM: standard forecast or significant change
Winds: variable direction winds at 5 MPH (4 knots; 2.1 m/s)
Visibility: 6 or more miles (10+ km)
Ceiling: 7000 feet AGL
Clouds: broken clouds at 7000 feet AGL
Weather: no significant weather forecast for this period
Text: FM030000 VRB04KT P6SM SKC
Forecast period: 0000 to 1200 UTC 03 October 2022
Forecast type: FROM: standard forecast or significant change
Winds: variable direction winds at 5 MPH (4 knots; 2.1 m/s)
Visibility: 6 or more miles (10+ km)
Clouds: clear skies
Weather: no significant weather forecast for this period
Text: FM031200 VRB03KT P6SM VCFG SKC
Forecast period: 1200 to 1800 UTC 03 October 2022
Forecast type: FROM: standard forecast or significant change
Winds: variable direction winds at 3 MPH (3 knots; 1.5 m/s)
Visibility: 6 or more miles (10+ km)
Clouds: clear skies
Weather: VCFG  (fog in vicinity)